Time;durP1;ratioP1;P1;durP2;ratioP2;P2;SDS_P1;SDS_P2;PMS_P1;PMS_P2;Temp;Humidity;BMP_temperature;BMP_pressure;BME280_temperature;BME280_humidity;BME280_pressure;Samples;Min_cycle;Max_cycle;Signal;HPM_P1;HPM_P2
2022/01/24 00:01:40;;;;;;;34.97;20.77;;;12.90;2201.60;;;;;;4829969;29;20451;-88
2022/01/24 00:04:07;;;;;;;26.45;15.40;;;12.90;2201.60;;;;;;4830061;29;20033;-88
2022/01/24 00:06:33;;;;;;;39.88;20.52;;;12.90;2201.60;;;;;;4830690;29;20026;-87
2022/01/24 00:09:00;;;;;;;26.92;16.20;;;12.90;2201.60;;;;;;4829962;29;20048;-86
2022/01/24 00:11:38;;;;;;;34.90;21.85;;;0.10;2201.60;;;;;;4832506;29;20022;-86
2022/01/24 00:14:46;;;;;;;30.73;19.20;;;12.90;2201.60;;;;;;4852750;29;20056;-85
2022/01/24 00:27:25;;;;;;;45.08;24.05;;;0.00;2201.60;;;;;;4855107;29;20037;-85
2022/01/24 00:29:51;;;;;;;29.38;16.90;;;0.00;2201.60;;;;;;4838683;29;20065;-83
2022/01/24 00:32:16;;;;;;;27.95;16.80;;;0.00;2201.60;;;;;;4839985;29;20030;-85
2022/01/24 00:34:42;;;;;;;29.63;16.58;;;12.90;2201.60;;;;;;4839709;29;20057;-85
2022/01/24 00:37:08;;;;;;;28.38;17.02;;;0.00;2201.60;;;;;;4840025;29;20030;-87
2022/01/24 00:39:34;;;;;;;38.13;23.27;;;0.10;2201.60;;;;;;4839996;29;20025;-86
2022/01/24 00:43:01;;;;;;;48.10;28.42;;;12.90;2201.60;;;;;;4839371;29;20033;-85
2022/01/24 00:45:10;;;;;;;39.35;23.10;;;13.00;2201.60;;;;;;4845541;29;20037;-86
2022/01/24 00:53:19;;;;;;;27.90;16.20;;;13.20;2201.60;;;;;;4844971;29;20080;-90
2022/01/24 00:55:47;;;;;;;28.30;18.50;;;13.30;2201.60;;;;;;4828492;29;20056;-86
2022/01/24 00:58:13;;;;;;;46.47;27.63;;;13.30;2201.60;;;;;;4828421;29;20108;-88
2022/01/24 01:00:39;;;;;;;31.58;21.00;;;13.10;2201.60;;;;;;4828303;29;20036;-86
2022/01/24 01:03:06;;;;;;;48.10;30.25;;;13.10;2201.60;;;;;;4828373;29;20026;-86
2022/01/24 01:18:43;;;;;;;48.33;25.50;;;13.20;2201.60;;;;;;4844438;29;20086;-85
2022/01/24 01:21:14;;;;;;;49.65;26.83;;;13.30;2201.60;;;;;;4828392;29;20045;-90
2022/01/24 01:23:46;;;;;;;54.85;29.95;;;13.20;2201.60;;;;;;4828021;29;20102;-86
2022/01/24 01:26:30;;;;;;;64.43;35.42;;;13.30;2201.60;;;;;;4844462;29;20086;-88
2022/01/24 01:29:22;;;;;;;73.63;40.55;;;13.40;2201.60;;;;;;4828215;29;20030;-89
2022/01/24 01:39:47;;;;;;;84.20;42.50;;;13.50;2201.60;;;;;;4843902;29;20340;-87
2022/01/24 01:55:39;;;;;;;69.88;35.55;;;13.20;2201.60;;;;;;4844021;29;20071;-88
2022/01/24 01:58:14;;;;;;;65.53;35.53;;;13.20;2201.60;;;;;;4827750;29;20046;-85
2022/01/24 02:00:48;;;;;;;44.25;25.20;;;13.20;2201.60;;;;;;4827651;29;20029;-86
2022/01/24 02:03:14;;;;;;;28.02;17.20;;;13.10;2201.60;;;;;;4827681;29;20022;-88
2022/01/24 02:05:41;;;;;;;26.75;15.40;;;13.10;2201.60;;;;;;4827475;29;20085;-87
2022/01/24 02:08:07;;;;;;;23.80;14.80;;;13.10;2201.60;;;;;;4827540;29;20030;-87
2022/01/24 02:10:35;;;;;;;24.90;17.70;;;13.10;2201.60;;;;;;4827602;29;20033;-88
2022/01/24 02:13:02;;;;;;;33.42;18.42;;;13.10;2201.60;;;;;;4827487;29;20030;-87
2022/01/24 02:15:41;;;;;;;33.08;20.42;;;13.10;2201.60;;;;;;4827762;29;20050;-86
2022/01/24 02:18:16;;;;;;;34.40;21.42;;;13.10;2201.60;;;;;;4828225;29;20030;-87
2022/01/24 02:21:09;;;;;;;28.63;18.63;;;13.00;2201.60;;;;;;4828198;29;20046;-89
2022/01/24 02:26:11;;;;;;;34.15;20.20;;;13.10;2201.60;;;;;;4843797;29;20064;-86
2022/01/24 02:28:58;;;;;;;31.00;18.83;;;13.10;2201.60;;;;;;4826949;29;20033;-88
2022/01/24 02:34:21;;;;;;;29.88;18.95;;;13.10;2201.60;;;;;;4843290;29;20045;-87
2022/01/24 02:36:47;;;;;;;28.67;17.48;;;13.20;2201.60;;;;;;4827215;29;20451;-88
2022/01/24 02:50:20;;;;;;;23.00;14.38;;;13.20;2201.60;;;;;;4847119;29;20036;-86
2022/01/24 02:52:45;;;;;;;29.00;16.23;;;13.30;2201.60;;;;;;4830397;29;20026;-82
2022/01/24 02:55:11;;;;;;;25.00;14.73;;;13.40;2201.60;;;;;;4830403;29;20034;-83
2022/01/24 02:57:37;;;;;;;24.73;15.85;;;13.40;2201.60;;;;;;4830233;29;20034;-82
2022/01/24 03:00:04;;;;;;;22.17;13.85;;;13.40;2201.60;;;;;;4830485;29;20025;-82
2022/01/24 03:02:30;;;;;;;22.83;13.93;;;13.40;2201.60;;;;;;4830127;29;20025;-85
2022/01/24 03:04:57;;;;;;;26.10;14.45;;;13.40;2201.60;;;;;;4830189;29;20478;-89
2022/01/24 03:07:23;;;;;;;19.25;11.80;;;13.30;2201.60;;;;;;4830304;29;20026;-85
2022/01/24 03:09:52;;;;;;;25.20;13.10;;;13.30;2201.60;;;;;;4829966;29;20034;-86
2022/01/24 03:12:38;;;;;;;21.98;12.98;;;13.20;2201.60;;;;;;4830184;29;20053;-87
2022/01/24 03:15:04;;;;;;;21.80;12.27;;;13.30;2201.60;;;;;;4846354;29;20030;-86
2022/01/24 03:17:29;;;;;;;21.83;13.30;;;13.40;2201.60;;;;;;4829913;29;20052;-84
2022/01/24 03:19:55;;;;;;;19.27;11.65;;;13.30;2201.60;;;;;;4830110;29;20114;-84
2022/01/24 03:22:21;;;;;;;20.25;13.77;;;13.30;2201.60;;;;;;4814740;29;20110;-85
2022/01/24 03:24:49;;;;;;;15.90;9.32;;;13.40;2201.60;;;;;;4829648;29;20477;-84
2022/01/24 03:27:15;;;;;;;15.07;10.63;;;13.30;2201.60;;;;;;4829886;29;20026;-81
2022/01/24 03:29:41;;;;;;;17.60;11.73;;;13.50;2201.60;;;;;;4830045;29;20082;-81
2022/01/24 03:32:08;;;;;;;17.40;9.70;;;13.50;2201.60;;;;;;4830314;29;20049;-82
2022/01/24 03:34:34;;;;;;;14.50;10.75;;;13.50;2201.60;;;;;;4814653;29;20129;-83
2022/01/24 03:37:01;;;;;;;17.30;10.35;;;13.50;2201.60;;;;;;4829483;29;20133;-84
2022/01/24 03:39:27;;;;;;;23.73;14.05;;;13.30;2201.60;;;;;;4829805;29;20022;-85
2022/01/24 03:41:53;;;;;;;26.20;13.80;;;13.40;2201.60;;;;;;4829376;29;20374;-85
2022/01/24 03:44:19;;;;;;;18.48;10.13;;;13.40;2201.60;;;;;;4829142;29;20034;-87
2022/01/24 03:47:18;;;;;;;16.50;9.90;;;13.30;2201.60;;;;;;4829392;29;20033;-85
2022/01/24 03:49:48;;;;;;;19.80;11.27;;;13.30;2201.60;;;;;;4845587;29;20527;-90
2022/01/24 03:52:19;;;;;;;19.55;9.10;;;13.40;2201.60;;;;;;4829110;29;20025;-86
2022/01/24 03:54:47;;;;;;;16.42;8.45;;;13.40;2201.60;;;;;;4829156;29;20076;-83
2022/01/24 03:57:14;;;;;;;21.17;13.70;;;13.40;2201.60;;;;;;4829305;29;20032;-86
2022/01/24 03:59:41;;;;;;;29.10;15.60;;;13.30;2201.60;;;;;;4829017;29;20427;-85
2022/01/24 04:02:08;;;;;;;26.70;12.98;;;13.30;2201.60;;;;;;4829208;29;20026;-85
2022/01/24 04:04:35;;;;;;;30.20;15.90;;;13.30;2201.60;;;;;;4828961;29;20033;-83
2022/01/24 04:07:01;;;;;;;27.95;12.75;;;13.30;2201.60;;;;;;4829071;29;20065;-86
2022/01/24 04:09:27;;;;;;;24.77;14.07;;;13.30;2201.60;;;;;;4829256;29;20061;-83
2022/01/24 04:11:56;;;;;;;20.17;12.35;;;13.30;2201.60;;;;;;4829029;29;20404;-84
2022/01/24 04:14:37;;;;;;;17.42;10.30;;;13.40;2201.60;;;;;;4829047;29;20030;-85
2022/01/24 04:22:14;;;;;;;52.05;26.77;;;13.30;2201.60;;;;;;4845871;29;20090;-87
2022/01/24 04:24:41;;;;;;;52.25;27.63;;;13.30;2201.60;;;;;;4828881;29;20045;-84
2022/01/24 04:27:08;;;;;;;44.17;24.40;;;13.30;2201.60;;;;;;4829118;29;20030;-88
2022/01/24 04:29:34;;;;;;;50.15;27.42;;;13.30;2201.60;;;;;;4829271;29;20028;-86
2022/01/24 04:32:01;;;;;;;76.95;38.08;;;13.30;2201.60;;;;;;4829287;29;20061;-90
2022/01/24 04:34:27;;;;;;;59.65;26.55;;;13.20;2201.60;;;;;;4828687;29;20038;-87
2022/01/24 04:36:53;;;;;;;118.90;49.00;;;13.20;2201.60;;;;;;4828804;29;20026;-86
2022/01/24 04:39:19;;;;;;;90.35;40.80;;;13.30;2201.60;;;;;;4828464;29;20025;-85
2022/01/24 04:41:49;;;;;;;92.57;52.45;;;13.30;2201.60;;;;;;4828816;29;20026;-87
2022/01/24 04:52:11;;;;;;;58.60;33.35;;;13.30;2201.60;;;;;;4845163;29;20040;-85
2022/01/24 04:57:04;;;;;;;49.90;31.67;;;13.30;2201.60;;;;;;4844886;29;20029;-87
2022/01/24 04:59:31;;;;;;;49.55;31.05;;;13.40;2201.60;;;;;;4844647;29;20416;-85
2022/01/24 05:01:57;;;;;;;42.28;24.65;;;13.30;2201.60;;;;;;4844639;29;20444;-86
2022/01/24 05:04:23;;;;;;;49.78;26.05;;;13.40;2201.60;;;;;;4828622;29;20082;-87
2022/01/24 05:06:49;;;;;;;58.30;29.63;;;13.40;2201.60;;;;;;4828337;29;20030;-85
2022/01/24 05:09:17;;;;;;;47.95;24.73;;;13.50;2201.60;;;;;;4827542;29;20037;-83
2022/01/24 05:25:18;;;;;;;43.22;25.00;;;13.70;2201.60;;;;;;4845658;29;20093;-81
2022/01/24 05:27:45;;;;;;;38.83;23.67;;;13.70;2201.60;;;;;;4829537;29;20033;-81
2022/01/24 05:30:12;;;;;;;91.07;55.53;;;13.40;2201.60;;;;;;4828243;29;20026;-81
2022/01/24 05:32:38;;;;;;;54.95;34.63;;;13.70;2201.60;;;;;;4827783;29;20086;-83
2022/01/24 05:35:04;;;;;;;72.28;40.45;;;13.70;2201.60;;;;;;4828396;29;20038;-85
2022/01/24 05:37:30;;;;;;;65.57;39.30;;;13.70;2201.60;;;;;;4827878;29;20030;-86
2022/01/24 05:39:56;;;;;;;40.50;25.38;;;13.60;2201.60;;;;;;4828342;29;20482;-84
2022/01/24 05:42:22;;;;;;;34.03;22.92;;;13.70;2201.60;;;;;;4827748;29;20026;-83
2022/01/24 05:44:49;;;;;;;33.65;22.38;;;13.70;2201.60;;;;;;4827715;29;20459;-83
2022/01/24 05:47:16;;;;;;;32.33;22.80;;;38.40;2201.60;;;;;;4827799;29;20029;-84
2022/01/24 05:49:43;;;;;;;37.22;20.90;;;13.70;2201.60;;;;;;4827732;29;20086;-86
2022/01/24 05:52:09;;;;;;;51.35;27.95;;;38.40;2201.60;;;;;;4827670;29;20050;-82
2022/01/24 05:54:40;;;;;;;65.85;38.05;;;38.40;2201.60;;;;;;4827343;29;20054;-86
2022/01/24 05:57:07;;;;;;;46.28;25.90;;;13.70;2201.60;;;;;;4827490;29;20120;-82
2022/01/24 05:59:34;;;;;;;49.75;27.05;;;38.40;2201.60;;;;;;4827619;29;20032;-83
2022/01/24 06:02:00;;;;;;;55.40;29.55;;;38.40;2201.60;;;;;;4827800;29;20455;-82
2022/01/24 06:04:26;;;;;;;36.15;22.48;;;38.50;2201.60;;;;;;4827326;29;20121;-83
2022/01/24 06:06:52;;;;;;;45.03;27.23;;;38.50;2201.60;;;;;;4827369;29;20080;-84
2022/01/24 06:09:17;;;;;;;227.13;107.70;;;38.50;2201.60;;;;;;4827291;29;20108;-83
2022/01/24 06:11:43;;;;;;;76.60;42.88;;;38.40;2201.60;;;;;;4827021;29;20467;-81
2022/01/24 06:14:10;;;;;;;54.10;31.60;;;38.40;2201.60;;;;;;4827358;29;20116;-82
2022/01/24 06:16:37;;;;;;;40.63;26.85;;;38.40;2201.60;;;;;;4827543;29;20030;-82
2022/01/24 06:19:03;;;;;;;64.07;31.45;;;38.70;2201.60;;;;;;4827908;29;20022;-83
2022/01/24 06:21:29;;;;;;;72.82;35.08;;;38.50;2201.60;;;;;;4828059;29;20453;-81
2022/01/24 06:23:55;;;;;;;62.17;33.60;;;38.50;2201.60;;;;;;4827489;29;20026;-83
2022/01/24 06:26:21;;;;;;;57.05;31.15;;;38.50;2201.60;;;;;;4827699;29;20389;-82
2022/01/24 06:28:47;;;;;;;50.67;30.13;;;38.40;2201.60;;;;;;4827577;29;20083;-83
2022/01/24 06:31:13;;;;;;;39.63;24.73;;;38.50;2201.60;;;;;;4827250;29;20032;-86
2022/01/24 06:33:39;;;;;;;39.47;22.40;;;38.50;2201.60;;;;;;4827175;29;20037;-85
2022/01/24 06:36:05;;;;;;;46.70;25.88;;;38.50;2201.60;;;;;;4827463;29;20093;-81
2022/01/24 06:38:31;;;;;;;30.80;17.45;;;38.50;2201.60;;;;;;4827261;29;20030;-81
2022/01/24 06:40:58;;;;;;;29.73;16.08;;;38.50;2201.60;;;;;;4828886;29;20026;-80
2022/01/24 06:43:24;;;;;;;34.35;21.77;;;38.50;2201.60;;;;;;4829258;29;20063;-82
2022/01/24 06:45:50;;;;;;;48.30;25.23;;;38.50;2201.60;;;;;;4828505;29;20054;-83
2022/01/24 06:48:17;;;;;;;64.90;31.35;;;38.50;2201.60;;;;;;4827327;29;20030;-85
2022/01/24 06:50:44;;;;;;;78.57;33.20;;;38.60;2201.60;;;;;;4811971;29;20033;-82
2022/01/24 06:53:10;;;;;;;65.88;29.77;;;38.60;2201.60;;;;;;4827025;29;20079;-85
2022/01/24 06:55:36;;;;;;;61.33;29.35;;;38.50;2201.60;;;;;;4827071;29;20139;-86
2022/01/24 06:58:02;;;;;;;47.35;25.23;;;38.50;2201.60;;;;;;4827119;29;20049;-80
2022/01/24 07:00:30;;;;;;;56.17;29.42;;;38.50;2201.60;;;;;;4828608;29;20026;-85
2022/01/24 07:02:58;;;;;;;66.95;34.95;;;13.70;2201.60;;;;;;4829721;29;20022;-82
2022/01/24 07:05:25;;;;;;;74.47;39.67;;;13.40;2201.60;;;;;;4828405;29;20064;-84
2022/01/24 07:07:51;;;;;;;80.85;39.92;;;13.70;2201.60;;;;;;4827368;29;20026;-85
2022/01/24 07:10:17;;;;;;;44.10;23.70;;;13.70;2201.60;;;;;;4827416;29;20033;-85
2022/01/24 07:12:46;;;;;;;33.90;19.20;;;13.70;2201.60;;;;;;4827685;29;20030;-82
2022/01/24 07:15:15;;;;;;;46.78;24.08;;;38.40;2201.60;;;;;;4827764;29;20030;-82
2022/01/24 07:20:26;;;;;;;67.13;33.63;;;13.70;2201.60;;;;;;4866173;29;20037;-82
2022/01/24 07:22:52;;;;;;;58.42;31.25;;;13.70;2201.60;;;;;;4839382;29;20030;-83
2022/01/24 07:25:19;;;;;;;73.22;37.63;;;13.70;2201.60;;;;;;4814354;29;20507;-85
2022/01/24 07:27:45;;;;;;;47.70;26.85;;;13.70;2201.60;;;;;;4829383;29;20117;-87
2022/01/24 07:30:11;;;;;;;52.33;28.10;;;13.70;2201.60;;;;;;4828808;29;20453;-87
2022/01/24 07:32:37;;;;;;;47.13;27.90;;;13.70;2201.60;;;;;;4829615;29;20132;-89
2022/01/24 07:35:04;;;;;;;111.22;60.10;;;38.40;2201.60;;;;;;4814885;29;20382;-85
2022/01/24 07:37:30;;;;;;;87.10;52.50;;;38.90;2201.60;;;;;;4829956;29;20022;-84
2022/01/24 07:39:56;;;;;;;102.80;55.78;;;38.40;2201.60;;;;;;4829755;29;20352;-86
2022/01/24 07:42:40;;;;;;;91.20;52.47;;;13.70;2201.60;;;;;;4829271;29;20049;-85
2022/01/24 07:45:06;;;;;;;50.22;30.88;;;13.70;2201.60;;;;;;4829593;29;20149;-85
2022/01/24 07:47:32;;;;;;;62.88;38.17;;;13.70;2201.60;;;;;;4829262;29;20061;-83
2022/01/24 07:49:58;;;;;;;61.00;34.05;;;13.60;2201.60;;;;;;4829310;29;20072;-90
2022/01/24 07:52:24;;;;;;;66.47;37.03;;;13.60;2201.60;;;;;;4829433;29;20022;-89
2022/01/24 07:54:50;;;;;;;104.35;50.60;;;13.60;2201.60;;;;;;4829398;29;20571;-87
2022/01/24 07:57:16;;;;;;;101.25;46.70;;;13.60;2201.60;;;;;;4829653;29;20371;-85
2022/01/24 07:59:42;;;;;;;145.77;65.50;;;13.70;2201.60;;;;;;4829452;29;20463;-87
2022/01/24 08:02:08;;;;;;;89.60;47.08;;;13.70;2201.60;;;;;;4829449;29;20038;-84
2022/01/24 08:04:33;;;;;;;105.32;48.45;;;13.60;2201.60;;;;;;4829022;29;20442;-82
2022/01/24 08:06:59;;;;;;;95.13;46.25;;;13.70;2201.60;;;;;;4829023;29;20055;-86
2022/01/24 08:09:25;;;;;;;71.10;37.30;;;13.70;2201.60;;;;;;4828951;29;20026;-88
2022/01/24 08:11:51;;;;;;;82.57;37.03;;;13.70;2201.60;;;;;;4829363;29;20030;-87
2022/01/24 08:14:17;;;;;;;89.28;47.10;;;13.60;2201.60;;;;;;4829129;29;20030;-84
2022/01/24 08:16:43;;;;;;;71.82;43.53;;;13.50;2201.60;;;;;;4829133;29;20026;-89
2022/01/24 08:19:09;;;;;;;75.07;40.90;;;13.40;2201.60;;;;;;4829300;29;20030;-84
2022/01/24 08:21:35;;;;;;;92.80;52.38;;;13.30;2201.60;;;;;;4829062;29;20323;-84
2022/01/24 08:24:02;;;;;;;108.50;58.45;;;13.30;2201.60;;;;;;4828943;29;20030;-86
2022/01/24 08:26:28;;;;;;;113.97;76.03;;;13.30;2201.60;;;;;;4828871;29;20030;-89
2022/01/24 08:28:54;;;;;;;116.00;71.63;;;13.20;2201.60;;;;;;4828924;29;20034;-87
2022/01/24 08:31:20;;;;;;;112.38;77.85;;;13.10;2201.60;;;;;;4828697;29;20033;-85
2022/01/24 08:33:47;;;;;;;71.50;43.97;;;13.20;2201.60;;;;;;4829075;29;20022;-83
2022/01/24 08:36:13;;;;;;;59.53;34.45;;;13.10;2201.60;;;;;;4829128;29;20120;-86
2022/01/24 08:38:39;;;;;;;62.28;39.95;;;13.10;2201.60;;;;;;4828800;29;20530;-81
2022/01/24 08:41:15;;;;;;;67.78;41.38;;;13.10;2201.60;;;;;;4828826;29;20038;-81
2022/01/24 08:46:13;;;;;;;65.70;38.80;;;13.20;2201.60;;;;;;4845455;29;20436;-84
2022/01/24 08:48:39;;;;;;;56.60;36.03;;;13.20;2201.60;;;;;;4828631;29;20033;-83
2022/01/24 08:51:05;;;;;;;58.25;34.20;;;13.10;2201.60;;;;;;4828763;29;20022;-85
2022/01/24 08:53:34;;;;;;;46.03;28.92;;;13.10;2201.60;;;;;;4828149;29;20494;-83
2022/01/24 08:56:04;;;;;;;36.97;23.55;;;13.30;2201.60;;;;;;4828425;29;20404;-87
2022/01/24 08:58:30;;;;;;;40.22;25.65;;;13.40;2201.60;;;;;;4828093;29;20167;-82
2022/01/24 09:00:56;;;;;;;65.90;45.47;;;13.30;2201.60;;;;;;4828220;29;20475;-82
2022/01/24 09:03:22;;;;;;;53.42;33.97;;;13.20;2201.60;;;;;;4844166;29;20026;-86
2022/01/24 09:05:49;;;;;;;71.40;43.05;;;13.10;2201.60;;;;;;4828018;29;20054;-83
2022/01/24 09:08:16;;;;;;;78.32;52.45;;;13.10;2201.60;;;;;;4828153;29;20026;-86
2022/01/24 09:10:43;;;;;;;49.25;32.30;;;13.00;2201.60;;;;;;4828298;29;20059;-87
2022/01/24 09:13:09;;;;;;;47.47;26.25;;;12.90;2201.60;;;;;;4827726;29;20033;-81
2022/01/24 09:15:36;;;;;;;54.35;30.58;;;12.90;2201.60;;;;;;4827768;29;20080;-82
2022/01/24 09:18:03;;;;;;;56.38;31.10;;;0.00;2201.60;;;;;;4828019;29;20113;-88
2022/01/24 09:20:29;;;;;;;48.00;27.55;;;0.10;2201.60;;;;;;4827843;29;20049;-85
2022/01/24 09:22:55;;;;;;;48.33;29.35;;;0.30;2201.60;;;;;;4828145;29;20033;-84
2022/01/24 09:25:22;;;;;;;46.83;27.15;;;0.40;2201.60;;;;;;4828970;29;20105;-88
2022/01/24 09:27:49;;;;;;;36.17;21.70;;;0.50;2201.60;;;;;;4828573;29;20053;-80
2022/01/24 09:30:18;;;;;;;39.88;24.73;;;0.60;2201.60;;;;;;4827932;29;20022;-85
2022/01/24 09:32:44;;;;;;;38.33;23.80;;;0.70;2201.60;;;;;;4828047;29;20053;-83
2022/01/24 09:35:12;;;;;;;44.28;31.13;;;0.70;2201.60;;;;;;4827884;29;20100;-85
2022/01/24 09:37:39;;;;;;;51.03;33.40;;;0.70;2201.60;;;;;;4828046;29;20455;-82
2022/01/24 09:40:07;;;;;;;50.92;31.20;;;0.70;2201.60;;;;;;4827678;29;20021;-87
2022/01/24 09:42:33;;;;;;;53.15;32.80;;;0.60;2201.60;;;;;;4827637;29;20030;-85
2022/01/24 09:44:59;;;;;;;57.85;35.70;;;0.50;2201.60;;;;;;4827966;29;20506;-87
2022/01/24 09:47:24;;;;;;;40.65;26.65;;;0.40;2201.60;;;;;;4828025;29;20068;-87
2022/01/24 09:49:51;;;;;;;41.13;26.73;;;0.40;2201.60;;;;;;4827783;29;20026;-85
2022/01/24 09:52:18;;;;;;;44.17;28.05;;;0.20;2201.60;;;;;;4828200;29;20086;-86
2022/01/24 09:54:45;;;;;;;81.03;48.72;;;0.50;2201.60;;;;;;4827589;29;20502;-86
2022/01/24 09:57:11;;;;;;;73.70;40.95;;;0.50;2201.60;;;;;;4828233;29;20037;-84
2022/01/24 09:59:37;;;;;;;60.33;38.88;;;0.20;2201.60;;;;;;4830853;29;20021;-89
2022/01/24 10:02:03;;;;;;;58.88;39.40;;;0.30;2201.60;;;;;;4831260;29;20026;-89
2022/01/24 10:04:30;;;;;;;66.15;52.05;;;0.30;2201.60;;;;;;4827766;29;20485;-86
2022/01/24 10:07:02;;;;;;;45.92;28.13;;;0.30;2201.60;;;;;;4827332;29;20064;-84
2022/01/24 10:09:39;;;;;;;63.92;40.72;;;0.30;2201.60;;;;;;4843205;29;20038;-87
2022/01/24 10:18:05;;;;;;;49.58;31.77;;;0.30;2201.60;;;;;;4843871;29;20130;-88
2022/01/24 10:20:37;;;;;;;59.50;36.78;;;0.20;2201.60;;;;;;4827933;29;20607;-87
2022/01/24 10:23:16;;;;;;;53.63;36.90;;;0.20;2201.60;;;;;;4827697;29;20074;-86
2022/01/24 10:26:04;;;;;;;60.83;45.67;;;0.40;2201.60;;;;;;4828117;29;20105;-90
2022/01/24 10:28:34;;;;;;;51.00;37.45;;;0.50;2201.60;;;;;;4827736;29;20442;-90
2022/01/24 10:31:09;;;;;;;55.72;41.28;;;0.60;2201.60;;;;;;4827786;29;20026;-87
2022/01/24 10:34:22;;;;;;;50.25;34.97;;;0.60;2201.60;;;;;;4827973;29;20030;-87
2022/01/24 10:36:54;;;;;;;54.53;31.08;;;0.50;2201.60;;;;;;4827025;29;20503;-87
2022/01/24 10:39:53;;;;;;;60.35;39.20;;;0.50;2201.60;;;;;;4827405;29;20513;-83
2022/01/24 10:45:25;;;;;;;43.78;30.70;;;0.50;2201.60;;;;;;4843367;29;20028;-93
2022/01/24 10:47:54;;;;;;;136.90;97.45;;;0.40;2201.60;;;;;;4822898;29;20479;-82
2022/01/24 10:50:28;;;;;;;109.30;84.88;;;0.50;2201.60;;;;;;4826297;29;20462;-80
2022/01/24 10:52:55;;;;;;;69.68;48.47;;;0.40;2201.60;;;;;;4826439;29;20072;-84
2022/01/24 10:55:27;;;;;;;48.30;29.23;;;0.40;2201.60;;;;;;4827489;29;20036;-88
2022/01/24 10:58:18;;;;;;;50.38;31.08;;;0.30;2201.60;;;;;;4828199;29;20037;-87
2022/01/24 11:00:47;;;;;;;58.22;28.30;;;0.20;2201.60;;;;;;4843527;29;20121;-88
2022/01/24 11:03:24;;;;;;;53.72;32.03;;;0.30;2201.60;;;;;;4813092;29;20112;-89
2022/01/24 11:05:50;;;;;;;50.33;28.27;;;0.30;2201.60;;;;;;4827580;29;20030;-88
2022/01/24 11:08:17;;;;;;;65.05;36.55;;;0.10;2201.60;;;;;;4829513;29;20485;-87
2022/01/24 11:10:46;;;;;;;68.15;33.97;;;0.20;2201.60;;;;;;4829464;29;20029;-91
2022/01/24 11:13:13;;;;;;;46.13;29.23;;;0.40;2201.60;;;;;;4830668;29;20030;-88
2022/01/24 11:15:48;;;;;;;70.57;42.17;;;0.40;2201.60;;;;;;4830040;29;20424;-89
2022/01/24 11:18:15;;;;;;;50.05;29.60;;;0.60;2201.60;;;;;;4830358;29;20025;-89
2022/01/24 11:20:45;;;;;;;37.85;21.50;;;0.60;2201.60;;;;;;4846917;29;20063;-87
2022/01/24 11:23:13;;;;;;;56.15;29.48;;;0.60;2201.60;;;;;;4830444;29;20032;-91
2022/01/24 11:25:43;;;;;;;42.08;23.83;;;0.70;2201.60;;;;;;4829946;29;20046;-86
2022/01/24 11:28:10;;;;;;;56.45;33.58;;;0.50;2201.60;;;;;;4830136;29;20030;-88
2022/01/24 11:30:53;;;;;;;48.13;28.58;;;0.60;2201.60;;;;;;4830178;29;20029;-89
2022/01/24 11:33:45;;;;;;;53.88;35.53;;;0.90;2201.60;;;;;;4830110;29;20025;-90
2022/01/24 11:36:11;;;;;;;35.35;21.13;;;0.90;2201.60;;;;;;4827708;29;20042;-90
2022/01/24 11:38:44;;;;;;;34.42;20.80;;;25.60;2201.60;;;;;;4830314;29;20047;-87
2022/01/24 11:41:32;;;;;;;44.42;26.02;;;0.90;2201.60;;;;;;4830318;29;20030;-91
2022/01/24 11:44:07;;;;;;;35.97;19.75;;;0.90;2201.60;;;;;;4830958;29;20170;-89
2022/01/24 11:46:46;;;;;;;54.47;29.10;;;0.80;2201.60;;;;;;4830939;29;20026;-89
2022/01/24 11:49:34;;;;;;;41.05;24.40;;;0.90;2201.60;;;;;;4831205;29;20041;-90
2022/01/24 11:52:07;;;;;;;89.53;49.03;;;0.60;2201.60;;;;;;4830393;29;20165;-92
2022/01/24 11:55:12;;;;;;;;;;;25.80;2201.60;;;;;;4829787;29;20050;-90
2022/01/24 11:57:50;;;;;;;57.38;33.67;;;26.00;2201.60;;;;;;4830319;29;19927;-90
2022/01/24 12:00:26;;;;;;;51.03;33.72;;;25.70;2201.60;;;;;;4830930;29;20033;-88
2022/01/24 12:03:02;;;;;;;61.08;31.33;;;25.70;2201.60;;;;;;4829669;29;20022;-87
2022/01/24 12:05:43;;;;;;;52.22;24.70;;;0.90;2201.60;;;;;;4830629;29;20112;-89
2022/01/24 12:08:10;;;;;;;56.00;31.40;;;0.80;2201.60;;;;;;4829988;29;20466;-89
2022/01/24 12:10:43;;;;;;;69.00;39.60;;;0.80;2201.60;;;;;;4830637;29;20057;-90
2022/01/24 12:13:26;;;;;;;62.78;34.33;;;0.90;2201.60;;;;;;4846842;29;20061;-90
2022/01/24 12:16:09;;;;;;;72.03;36.33;;;25.80;2201.60;;;;;;4829325;29;20105;-88
2022/01/24 12:18:35;;;;;;;61.75;32.42;;;25.80;2201.60;;;;;;4829143;29;20492;-90
2022/01/24 12:21:21;;;;;;;56.72;31.83;;;51.20;2227.20;;;;;;4829221;29;20041;-89
2022/01/24 12:23:47;;;;;;;73.10;37.17;;;51.60;2227.20;;;;;;4829252;29;20033;-89
2022/01/24 12:26:13;;;;;;;49.13;27.23;;;51.50;2227.20;;;;;;4828947;29;20049;-90
2022/01/24 12:28:42;;;;;;;63.92;36.95;;;52.00;2227.20;;;;;;4828957;29;20072;-88
2022/01/24 12:31:09;;;;;;;51.25;30.27;;;52.00;2227.20;;;;;;4829008;29;20033;-88
2022/01/24 12:33:54;;;;;;;51.67;27.42;;;76.80;2227.20;;;;;;4828942;29;20030;-89
2022/01/24 12:36:47;;;;;;;55.35;28.95;;;77.30;2227.20;;;;;;4828967;29;20034;-88
2022/01/24 12:39:21;;;;;;;65.13;31.00;;;77.40;2227.20;;;;;;4828979;29;20026;-89
2022/01/24 12:41:52;;;;;;;46.15;26.23;;;77.50;2227.20;;;;;;4829194;29;20053;-88
2022/01/24 12:47:17;;;;;;;62.00;34.63;;;77.60;2201.60;;;;;;4845572;29;20497;-87
2022/01/24 12:49:45;;;;;;;72.03;39.97;;;102.50;2150.40;;;;;;4834708;29;20026;-84
2022/01/24 12:52:20;;;;;;;61.35;34.67;;;102.70;2150.40;;;;;;4852674;29;20042;-84
2022/01/24 12:54:49;;;;;;;126.72;72.25;;;103.00;2073.60;;;;;;4852042;29;20049;-89
2022/01/24 12:57:17;;;;;;;79.32;47.17;;;103.00;2073.60;;;;;;4843198;29;20486;-87
2022/01/24 12:59:55;;;;;;;250.68;141.80;;;103.10;2073.60;;;;;;4829227;29;20026;-88
2022/01/24 13:02:29;;;;;;;73.15;45.33;;;103.10;2048.00;;;;;;4829573;29;20034;-86
2022/01/24 13:05:03;;;;;;;89.38;58.63;;;103.10;2048.00;;;;;;4829792;29;20034;-88
2022/01/24 13:07:31;;;;;;;51.63;35.72;;;103.10;2048.00;;;;;;4830819;29;20481;-88
2022/01/24 13:10:12;;;;;;;34.83;25.92;;;102.90;2073.60;;;;;;4828941;29;20028;-87
2022/01/24 13:12:40;;;;;;;38.22;24.15;;;102.40;2124.80;;;;;;4829228;29;20113;-87
2022/01/24 13:15:19;;;;;;;40.95;28.77;;;77.50;2176.00;;;;;;4828257;29;20029;-89
2022/01/24 13:23:22;;;;;;;47.00;31.15;;;51.60;2227.20;;;;;;4844788;29;20351;-86
2022/01/24 13:25:49;;;;;;;47.63;31.05;;;51.40;2227.20;;;;;;4827929;29;20086;-89
2022/01/24 13:28:19;;;;;;;56.50;36.05;;;51.30;2227.20;;;;;;4827670;29;20040;-87
2022/01/24 13:30:51;;;;;;;62.63;37.55;;;51.20;2227.20;;;;;;4827361;29;20061;-89
2022/01/24 13:33:21;;;;;;;66.32;41.40;;;51.30;2227.20;;;;;;4828412;29;20070;-90
2022/01/24 13:35:53;;;;;;;52.67;33.63;;;51.20;2227.20;;;;;;4827798;29;20038;-88
2022/01/24 13:38:27;;;;;;;44.30;25.88;;;51.30;2227.20;;;;;;4828095;29;20033;-90
2022/01/24 13:41:11;;;;;;;45.08;28.70;;;51.20;2227.20;;;;;;4828041;29;20034;-87
2022/01/24 13:44:05;;;;;;;46.38;31.05;;;51.20;2227.20;;;;;;4827755;29;20033;-87
2022/01/24 13:46:38;;;;;;;39.45;24.85;;;51.20;2227.20;;;;;;4827864;29;20029;-88
2022/01/24 13:49:16;;;;;;;45.47;27.35;;;26.40;2201.60;;;;;;4827835;29;20038;-88
2022/01/24 13:51:46;;;;;;;38.53;22.33;;;26.30;2201.60;;;;;;4827846;29;20030;-90
2022/01/24 13:54:13;;;;;;;49.92;30.25;;;26.00;2201.60;;;;;;4827584;29;20085;-90
2022/01/24 14:00:15;;;;;;;55.45;34.83;;;25.80;2201.60;;;;;;4839355;29;20041;-88
2022/01/24 14:02:42;;;;;;;77.45;45.83;;;25.70;2201.60;;;;;;4827531;29;20061;-87
2022/01/24 14:05:09;;;;;;;114.13;60.85;;;25.70;2201.60;;;;;;4827549;29;20033;-90
2022/01/24 14:07:42;;;;;;;111.57;60.63;;;26.00;2201.60;;;;;;4827613;29;20030;-89
2022/01/24 14:10:46;;;;;;;106.25;59.38;;;0.90;2201.60;;;;;;4827292;29;20029;-89
2022/01/24 14:13:24;;;;;;;131.35;73.20;;;0.90;2201.60;;;;;;4841209;29;20034;-87
2022/01/24 14:16:03;;;;;;;158.75;91.25;;;25.60;2201.60;;;;;;4828912;29;20055;-87
2022/01/24 14:18:29;;;;;;;235.40;124.25;;;26.00;2201.60;;;;;;4827506;29;20113;-88
2022/01/24 14:21:08;;;;;;;164.32;87.68;;;26.40;2201.60;;;;;;4827772;29;20032;-90
2022/01/24 14:23:39;;;;;;;228.52;125.80;;;51.20;2227.20;;;;;;4827767;29;20030;-89
2022/01/24 14:26:42;;;;;;;193.23;109.63;;;51.30;2227.20;;;;;;4827119;29;20022;-90